Time;durP1;ratioP1;P1;durP2;ratioP2;P2;SDS_P1;SDS_P2;PMS_P1;PMS_P2;Temp;Humidity;BMP_temperature;BMP_pressure;BME280_temperature;BME280_humidity;BME280_pressure;Samples;Min_cycle;Max_cycle;Signal;HPM_P1;HPM_P2
2021/05/28 00:02:02;;;;;;;27.82;11.20;;;;;;;15.21;72.43;100752.76;1749198;82;21419;-68
2021/05/28 00:04:30;;;;;;;24.25;11.12;;;;;;;15.14;72.93;100748.42;1749305;82;20918;-68
2021/05/28 00:06:57;;;;;;;22.75;10.35;;;;;;;15.14;72.93;100748.42;1749373;82;20965;-69
2021/05/28 00:09:23;;;;;;;16.95;10.90;;;;;;;15.07;72.94;100744.09;1749444;82;20982;-69
2021/05/28 00:11:50;;;;;;;22.45;10.40;;;;;;;15.05;72.91;100745.14;1749285;82;21061;-68
2021/05/28 00:14:19;;;;;;;23.45;9.28;;;;;;;14.97;73.17;100738.31;1749093;80;20898;-68
2021/05/28 00:16:45;;;;;;;23.65;11.10;;;;;;;14.97;73.17;100738.31;1749340;80;21009;-68
2021/05/28 00:19:13;;;;;;;28.12;11.93;;;;;;;14.98;73.23;100742.13;1749196;80;20937;-68
2021/05/28 00:21:39;;;;;;;26.90;11.05;;;;;;;14.97;73.24;100736.98;1749304;82;20993;-68
2021/05/28 00:24:08;;;;;;;21.45;10.28;;;;;;;14.98;73.34;100739.98;1749374;82;21033;-67
2021/05/28 00:26:34;;;;;;;21.20;10.13;;;;;;;14.99;73.47;100745.64;1749269;82;20970;-68
2021/05/28 00:29:04;;;;;;;19.98;10.20;;;;;;;15.02;73.51;100746.72;1749291;82;20902;-68
2021/05/28 00:31:32;;;;;;;22.13;9.53;;;;;;;15.06;73.33;100750.80;1749158;82;21415;-68
2021/05/28 00:33:59;;;;;;;22.20;10.32;;;;;;;15.09;72.98;100743.95;1749186;80;20906;-69
2021/05/28 00:36:25;;;;;;;21.05;9.13;;;;;;;15.09;72.98;100743.95;1749351;80;21064;-67
2021/05/28 00:38:53;;;;;;;22.65;9.85;;;;;;;15.12;73.36;100737.13;1749225;82;20862;-68
2021/05/28 00:41:20;;;;;;;20.85;9.85;;;;;;;15.15;73.19;100741.34;1749309;82;20910;-68
2021/05/28 00:43:47;;;;;;;21.30;10.32;;;;;;;15.13;73.33;100733.03;1749159;80;21035;-68
2021/05/28 00:46:14;;;;;;;26.57;10.00;;;;;;;15.17;73.35;100732.33;1749444;82;20938;-67
2021/05/28 00:48:41;;;;;;;20.80;9.40;;;;;;;15.18;73.48;100731.35;1749240;82;21047;-68
2021/05/28 00:51:08;;;;;;;22.40;8.43;;;;;;;15.20;73.18;100728.11;1749188;82;20933;-67
2021/05/28 00:53:35;;;;;;;14.60;9.98;;;;;;;15.20;73.07;100725.47;1723792;81;21399;-68
2021/05/28 00:56:01;;;;;;;15.10;9.30;;;;;;;15.19;73.07;100721.16;1757824;81;20941;-69
2021/05/28 00:58:29;;;;;;;12.70;8.38;;;;;;;15.17;73.05;100721.76;1757795;80;20989;-68
2021/05/28 01:00:56;;;;;;;16.40;8.70;;;;;;;15.16;72.82;100717.91;1757786;81;21018;-69
2021/05/28 01:03:24;;;;;;;13.55;8.40;;;;;;;15.16;72.82;100717.91;1757680;80;20965;-68
2021/05/28 01:05:51;;;;;;;15.68;9.00;;;;;;;15.16;73.14;100715.27;1757385;81;20910;-68
2021/05/28 01:08:18;;;;;;;18.00;11.68;;;;;;;15.16;73.15;100714.77;1757259;81;20933;-67
2021/05/28 01:10:46;;;;;;;25.15;13.20;;;;;;;15.18;73.24;100712.03;1757196;81;21407;-68
2021/05/28 01:13:15;;;;;;;12.95;8.18;;;;;;;15.21;73.19;100715.28;1757110;81;21500;-69
2021/05/28 01:15:42;;;;;;;14.33;8.48;;;;;;;15.23;73.01;100709.41;1757311;81;20905;-68
2021/05/28 01:18:11;;;;;;;12.30;8.20;;;;;;;15.24;73.08;100705.78;1757185;80;20909;-69
2021/05/28 01:20:39;;;;;;;14.43;9.33;;;;;;;15.27;73.22;100708.66;1757363;81;20935;-68
2021/05/28 01:23:06;;;;;;;13.30;7.22;;;;;;;15.29;73.25;100705.42;1757279;81;20870;-68
2021/05/28 01:25:33;;;;;;;18.98;8.75;;;;;;;15.34;73.27;100701.95;1757260;81;21093;-68
2021/05/28 01:28:00;;;;;;;22.10;8.95;;;;;;;15.38;73.21;100702.05;1757173;81;20870;-68
2021/05/28 01:30:29;;;;;;;21.87;8.90;;;;;;;15.40;72.87;100703.26;1757162;81;20887;-68
2021/05/28 01:32:56;;;;;;;15.93;8.08;;;;;;;15.41;72.68;100699.67;1757234;81;21036;-69
2021/05/28 01:35:23;;;;;;;13.50;7.85;;;;;;;15.41;72.51;100704.47;1757369;81;20894;-68
2021/05/28 01:37:49;;;;;;;16.07;7.92;;;;;;;15.40;72.30;100698.80;1757201;80;21068;-69
2021/05/28 01:40:18;;;;;;;17.07;9.00;;;;;;;15.41;72.31;100700.99;1757247;81;20961;-68
2021/05/28 01:42:47;;;;;;;19.25;8.78;;;;;;;15.36;72.31;100695.20;1757326;81;20898;-68
2021/05/28 01:45:14;;;;;;;23.15;11.40;;;;;;;15.32;72.17;100703.88;1757244;80;21013;-68
2021/05/28 01:47:41;;;;;;;17.20;8.55;;;;;;;15.29;72.07;100699.65;1757303;81;21005;-67
2021/05/28 01:50:10;;;;;;;20.88;9.13;;;;;;;15.26;72.25;100695.11;1757202;80;21434;-67
2021/05/28 01:52:37;;;;;;;16.00;7.53;;;;;;;15.22;72.37;100700.27;1757104;81;20957;-68
2021/05/28 01:55:06;;;;;;;11.22;8.03;;;;;;;15.07;72.51;100703.61;1738128;81;21015;-69
2021/05/28 01:57:33;;;;;;;16.45;8.23;;;;;;;15.00;73.07;100704.56;1714663;82;21352;-69
2021/05/28 02:00:00;;;;;;;17.73;9.23;;;;;;;15.00;73.07;100704.56;1735524;81;20922;-68
2021/05/28 02:02:27;;;;;;;19.15;9.45;;;;;;;14.95;73.10;100709.86;1735505;82;21091;-69
2021/05/28 02:04:54;;;;;;;20.00;9.43;;;;;;;14.89;73.73;100707.19;1735493;82;21490;-68
2021/05/28 02:07:24;;;;;;;26.42;8.13;;;;;;;14.89;73.73;100707.19;1735384;81;20847;-69
2021/05/28 02:09:51;;;;;;;23.25;9.10;;;;;;;14.88;74.26;100709.48;1734993;82;20895;-69
2021/05/28 02:12:19;;;;;;;14.47;8.43;;;;;;;14.89;74.02;100710.67;1735515;81;21061;-67
2021/05/28 02:14:47;;;;;;;17.23;8.63;;;;;;;14.90;73.76;100707.57;1735350;82;20962;-69
2021/05/28 02:17:14;;;;;;;19.73;8.45;;;;;;;14.89;73.88;100705.39;1735378;81;21495;-69
2021/05/28 02:19:42;;;;;;;24.47;8.20;;;;;;;14.86;73.64;100702.16;1735604;82;20983;-69
2021/05/28 02:22:11;;;;;;;13.68;8.53;;;;;;;14.84;73.76;100704.07;1735344;82;20863;-69
2021/05/28 02:24:37;;;;;;;15.78;7.25;;;;;;;14.80;73.80;100704.77;1735502;82;20974;-69
2021/05/28 02:27:05;;;;;;;13.28;7.95;;;;;;;14.80;74.04;100705.27;1735548;82;21087;-67
2021/05/28 02:29:32;;;;;;;12.25;8.25;;;;;;;14.76;74.55;100701.17;1735325;82;21404;-68
2021/05/28 02:31:59;;;;;;;15.58;8.73;;;;;;;14.76;74.55;100701.17;1735484;82;20851;-69
2021/05/28 02:34:26;;;;;;;17.75;9.50;;;;;;;14.74;74.46;100698.67;1735303;82;21507;-69
2021/05/28 02:36:53;;;;;;;26.15;9.78;;;;;;;14.74;74.42;100708.36;1735445;81;20899;-69
2021/05/28 02:39:20;;;;;;;14.53;8.78;;;;;;;14.74;74.48;100701.77;1735491;82;21071;-69
2021/05/28 02:41:48;;;;;;;13.88;8.10;;;;;;;14.75;74.57;100707.42;1735429;81;21416;-70
2021/05/28 02:44:15;;;;;;;13.95;7.85;;;;;;;14.75;74.70;100703.46;1735400;81;20939;-70
2021/05/28 02:46:42;;;;;;;20.12;8.45;;;;;;;14.76;74.81;100703.81;1735313;82;20915;-68
2021/05/28 02:49:09;;;;;;;19.27;9.25;;;;;;;14.77;74.87;100708.15;1735368;82;21483;-69
2021/05/28 02:51:36;;;;;;;20.15;8.88;;;;;;;14.76;75.02;100709.09;1735486;81;21034;-70
2021/05/28 02:54:04;;;;;;;15.48;7.80;;;;;;;14.78;75.24;100707.17;1737608;81;20938;-68
2021/05/28 02:56:32;;;;;;;18.32;8.73;;;;;;;14.82;75.25;100709.46;1743455;82;20918;-68
2021/05/28 02:58:59;;;;;;;14.80;9.33;;;;;;;14.88;75.19;100714.28;1743568;82;20939;-69
2021/05/28 03:01:26;;;;;;;15.25;8.28;;;;;;;14.91;75.17;100719.80;1743460;81;20981;-69
2021/05/28 03:03:54;;;;;;;14.20;7.78;;;;;;;14.95;75.01;100715.14;1743600;82;21002;-68
2021/05/28 03:06:21;;;;;;;22.22;8.63;;;;;;;14.97;74.98;100715.37;1743503;82;20895;-69
2021/05/28 03:08:48;;;;;;;21.95;8.20;;;;;;;15.04;74.93;100713.94;1743521;82;21536;-69
2021/05/28 03:11:16;;;;;;;20.90;8.63;;;;;;;15.15;74.71;100709.15;1743405;82;20918;-69
2021/05/28 03:13:44;;;;;;;25.65;11.30;;;;;;;15.15;74.71;100709.15;1743577;82;20946;-69
2021/05/28 03:16:11;;;;;;;19.42;8.63;;;;;;;15.21;74.66;100710.48;1743516;80;21091;-68
2021/05/28 03:18:51;;;;;;;19.87;8.13;;;;;;;15.30;74.67;100709.77;1743519;82;20923;-69
2021/05/28 03:23:52;;;;;;;26.45;8.85;;;;;;;15.47;74.66;100702.67;1743936;81;21073;-70
2021/05/28 03:26:19;;;;;;;21.15;8.73;;;;;;;15.58;74.62;100702.28;1743629;82;20920;-69
2021/05/28 03:28:46;;;;;;;18.90;7.70;;;;;;;15.67;74.38;100704.18;1743471;82;21001;-69
2021/05/28 03:31:13;;;;;;;20.55;8.05;;;;;;;15.86;74.21;100700.94;1743396;81;20934;-69
2021/05/28 03:33:40;;;;;;;20.55;10.48;;;;;;;15.86;74.21;100700.94;1743561;82;20875;-70
2021/05/28 03:36:07;;;;;;;32.42;15.65;;;;;;;15.97;74.20;100698.75;1743577;82;20990;-69
2021/05/28 03:38:34;;;;;;;29.48;12.70;;;;;;;16.05;74.19;100694.52;1743531;82;20986;-69
2021/05/28 03:41:02;;;;;;;25.92;12.45;;;;;;;16.15;74.28;100691.95;1743442;81;21403;-69
2021/05/28 03:43:29;;;;;;;22.10;9.33;;;;;;;16.25;74.30;100693.34;1743451;82;21297;-69
2021/05/28 03:45:56;;;;;;;33.78;10.68;;;;;;;16.37;74.15;100697.63;1743635;82;20926;-69
2021/05/28 03:48:24;;;;;;;27.15;10.43;;;;;;;16.49;74.12;100697.91;1743410;82;20919;-70
2021/05/28 03:50:52;;;;;;;22.15;9.58;;;;;;;16.63;73.87;100696.77;1743641;82;20890;-68
2021/05/28 03:53:19;;;;;;;25.85;10.43;;;;;;;16.78;73.51;100705.21;1743494;81;21901;-69
2021/05/28 03:55:47;;;;;;;21.65;10.82;;;;;;;16.94;73.32;100700.34;1736301;81;20919;-68
2021/05/28 03:58:14;;;;;;;24.02;10.15;;;;;;;17.12;73.15;100702.35;1735437;81;20935;-68
2021/05/28 04:00:41;;;;;;;26.30;10.40;;;;;;;17.31;72.71;100708.23;1735371;82;20900;-68
2021/05/28 04:03:08;;;;;;;25.45;8.73;;;;;;;17.53;72.66;100700.56;1735439;81;20967;-69
2021/05/28 04:05:36;;;;;;;20.57;9.95;;;;;;;17.77;72.34;100705.52;1735264;82;21074;-68
2021/05/28 04:08:03;;;;;;;16.42;7.20;;;;;;;18.01;71.66;100697.22;1735393;82;20891;-69
2021/05/28 04:10:30;;;;;;;33.42;9.05;;;;;;;18.22;70.72;100697.07;1735356;82;20943;-68
2021/05/28 04:12:57;;;;;;;18.98;7.05;;;;;;;18.41;69.84;100698.40;1735236;82;21455;-68
2021/05/28 04:15:24;;;;;;;10.85;6.75;;;;;;;18.58;68.98;100696.83;1735373;81;20926;-69
2021/05/28 04:17:51;;;;;;;15.10;7.20;;;;;;;18.76;68.60;100696.09;1735306;81;21024;-68
2021/05/28 04:20:18;;;;;;;11.95;7.42;;;;;;;19.09;68.38;100692.11;1735342;82;21021;-69
2021/05/28 04:22:46;;;;;;;22.27;7.92;;;;;;;19.61;67.63;100692.94;1735233;81;20923;-69
2021/05/28 04:25:14;;;;;;;20.02;7.53;;;;;;;20.29;66.80;100685.30;1735315;82;20939;-68
2021/05/28 04:27:41;;;;;;;13.15;6.67;;;;;;;21.04;65.26;100691.52;1735367;82;20923;-68
2021/05/28 04:30:09;;;;;;;19.35;7.20;;;;;;;21.77;63.35;100686.16;1735443;81;21871;-69
2021/05/28 04:32:36;;;;;;;18.48;6.97;;;;;;;22.49;61.43;100680.23;1735267;82;21022;-70
2021/05/28 04:35:04;;;;;;;12.70;6.33;;;;;;;23.13;59.18;100684.31;1735429;82;20914;-68
2021/05/28 04:37:31;;;;;;;14.63;6.37;;;;;;;23.70;57.60;100688.06;1735426;82;20903;-68
2021/05/28 04:39:58;;;;;;;14.00;5.70;;;;;;;24.20;55.74;100690.75;1735435;82;21486;-68
2021/05/28 04:42:25;;;;;;;10.15;4.95;;;;;;;24.70;53.93;100686.32;1735559;82;21037;-68
2021/05/28 04:44:51;;;;;;;12.47;5.22;;;;;;;25.17;52.41;100685.98;1735414;82;20931;-68
2021/05/28 04:47:18;;;;;;;12.55;4.80;;;;;;;25.63;51.20;100684.42;1735566;82;20967;-68
2021/05/28 04:49:46;;;;;;;24.45;5.87;;;;;;;26.06;50.26;100685.00;1735463;82;21523;-68
2021/05/28 04:52:12;;;;;;;28.52;8.70;;;;;;;26.49;49.36;100688.16;1735575;82;20875;-68
2021/05/28 04:54:40;;;;;;;18.85;6.00;;;;;;;26.88;47.88;100675.01;1737470;81;21830;-70
2021/05/28 04:57:07;;;;;;;14.65;3.85;;;;;;;27.24;46.83;100676.67;1743499;82;20922;-67
2021/05/28 04:59:34;;;;;;;13.75;5.08;;;;;;;27.65;45.16;100678.98;1743605;80;21364;-69
2021/05/28 05:02:02;;;;;;;12.20;5.05;;;;;;;27.89;44.66;100667.67;1743663;82;20894;-68
2021/05/28 05:04:28;;;;;;;17.02;5.37;;;;;;;28.21;44.52;100666.55;1743598;82;20977;-68
2021/05/28 05:06:55;;;;;;;12.98;5.72;;;;;;;28.49;43.62;100672.30;1743771;82;21616;-69
2021/05/28 05:09:23;;;;;;;18.80;6.28;;;;;;;28.65;42.33;100669.16;1743528;82;20899;-69
2021/05/28 05:11:50;;;;;;;27.52;6.55;;;;;;;28.70;41.67;100661.77;1743620;82;20870;-68
2021/05/28 05:14:17;;;;;;;14.28;6.25;;;;;;;28.78;41.72;100662.08;1743587;82;20914;-68
2021/05/28 05:16:45;;;;;;;17.23;6.40;;;;;;;28.96;42.11;100660.06;1743565;82;20998;-70
2021/05/28 05:19:13;;;;;;;14.60;6.35;;;;;;;29.20;41.19;100657.21;1743509;81;21084;-69
2021/05/28 05:21:41;;;;;;;13.50;5.90;;;;;;;29.43;40.44;100663.44;1743514;82;21424;-69
2021/05/28 05:24:09;;;;;;;12.07;5.15;;;;;;;29.56;38.87;100652.55;1743618;82;20918;-68
2021/05/28 05:26:37;;;;;;;13.00;4.67;;;;;;;29.62;38.41;100658.45;1743677;82;21013;-66
2021/05/28 05:29:04;;;;;;;10.78;4.20;;;;;;;29.73;37.18;100651.03;1743635;82;20986;-68
2021/05/28 05:31:32;;;;;;;8.25;3.58;;;;;;;29.83;36.89;100655.95;1743784;82;21788;-66
2021/05/28 05:33:59;;;;;;;8.53;3.55;;;;;;;30.02;36.58;100653.34;1743173;82;20899;-69
2021/05/28 05:36:26;;;;;;;10.55;3.37;;;;;;;30.27;36.16;100656.05;1743508;81;20923;-66
2021/05/28 05:38:53;;;;;;;15.53;4.30;;;;;;;30.50;35.79;100651.38;1743622;82;20946;-68
2021/05/28 05:41:19;;;;;;;12.07;3.80;;;;;;;30.67;34.93;100649.75;1743491;82;20903;-69
2021/05/28 05:43:46;;;;;;;12.00;4.22;;;;;;;30.76;34.73;100653.81;1743662;82;21137;-70
2021/05/28 05:46:13;;;;;;;14.93;4.37;;;;;;;30.84;34.79;100645.94;1743484;82;20902;-69
2021/05/28 05:48:41;;;;;;;12.70;4.30;;;;;;;30.91;34.80;100649.42;1743509;81;20902;-68
2021/05/28 05:51:08;;;;;;;9.25;3.35;;;;;;;31.00;34.04;100648.59;1743549;81;20913;-69
2021/05/28 05:53:35;;;;;;;10.90;3.35;;;;;;;31.08;33.98;100644.73;1743726;80;20998;-70
2021/05/28 05:56:02;;;;;;;11.63;3.45;;;;;;;31.14;34.06;100639.23;1747554;81;21077;-69
2021/05/28 05:58:29;;;;;;;14.95;4.75;;;;;;;31.27;33.64;100646.91;1749412;82;20890;-68
2021/05/28 06:00:56;;;;;;;10.25;4.22;;;;;;;31.41;34.00;100641.59;1749426;80;21498;-68
2021/05/28 06:03:23;;;;;;;9.13;3.42;;;;;;;31.70;32.78;100637.78;1749234;82;20866;-69
2021/05/28 06:05:49;;;;;;;9.18;3.85;;;;;;;32.07;32.40;100636.31;1749503;82;20898;-69
2021/05/28 06:08:16;;;;;;;13.20;3.17;;;;;;;32.35;31.54;100641.03;1749462;82;21138;-70
2021/05/28 06:10:44;;;;;;;12.15;3.58;;;;;;;32.53;31.77;100638.24;1749024;81;20927;-68
2021/05/28 06:13:11;;;;;;;14.10;4.33;;;;;;;32.81;31.13;100634.77;1749415;82;21498;-67
2021/05/28 06:15:38;;;;;;;109.32;27.20;;;;;;;33.02;30.17;100621.08;1749419;80;21001;-71
2021/05/28 06:18:05;;;;;;;33.50;9.10;;;;;;;33.09;30.37;100626.95;1749499;80;20982;-70
2021/05/28 06:20:31;;;;;;;8.23;3.40;;;;;;;33.13;29.52;100626.22;1749481;80;21046;-68
2021/05/28 06:22:59;;;;;;;12.20;2.90;;;;;;;33.06;28.51;100627.41;1749204;82;21411;-68
2021/05/28 06:25:27;;;;;;;9.30;3.47;;;;;;;32.99;28.08;100626.16;1749355;80;20950;-68
2021/05/28 06:27:54;;;;;;;11.73;2.33;;;;;;;33.03;28.12;100628.70;1749458;80;20926;-68
2021/05/28 06:30:21;;;;;;;14.10;2.40;;;;;;;33.04;27.48;100626.28;1749387;80;20898;-69
2021/05/28 06:32:48;;;;;;;4.65;2.00;;;;;;;33.09;27.37;100629.12;1749504;82;21625;-69
2021/05/28 06:35:15;;;;;;;10.08;1.40;;;;;;;33.22;26.67;100626.67;1749419;82;21006;-67
2021/05/28 06:37:43;;;;;;;3.72;1.50;;;;;;;33.33;26.66;100632.59;1749415;82;20997;-67
2021/05/28 06:40:18;;;;;;;7.83;2.75;;;;;;;33.40;26.00;100629.19;1749410;82;20902;-68
2021/05/28 06:42:46;;;;;;;15.80;4.60;;;;;;;33.41;26.08;100624.02;1693958;83;21029;-69
2021/05/28 06:45:16;;;;;;;21.65;10.68;;;;;;;33.41;26.46;100621.30;1694008;84;21467;-69
2021/05/28 06:47:42;;;;;;;22.77;8.33;;;;;;;33.48;26.84;100621.69;1693779;84;21041;-70
2021/05/28 06:50:11;;;;;;;17.20;8.18;;;;;;;33.69;26.74;100624.29;1693998;84;20982;-71
2021/05/28 06:52:37;;;;;;;25.57;10.75;;;;;;;33.99;27.42;100622.59;1693820;84;21526;-70
2021/05/28 06:55:08;;;;;;;14.33;7.67;;;;;;;34.35;26.77;100624.02;1693725;84;20969;-68
2021/05/28 06:57:35;;;;;;;19.65;8.08;;;;;;;34.58;26.68;100621.61;1693733;84;21307;-69
2021/05/28 07:00:05;;;;;;;19.57;9.68;;;;;;;34.87;27.00;100617.38;1693579;83;20910;-72
2021/05/28 07:02:32;;;;;;;31.02;9.85;;;;;;;35.11;26.88;100610.27;1693764;84;21450;-67
2021/05/28 07:04:58;;;;;;;17.60;8.73;;;;;;;35.38;26.42;100611.16;1693692;84;20946;-67
2021/05/28 07:07:25;;;;;;;32.33;9.48;;;;;;;35.54;26.26;100615.40;1693641;83;20997;-67
2021/05/28 07:09:52;;;;;;;17.52;8.63;;;;;;;35.57;26.42;100608.87;1693738;84;21056;-67
2021/05/28 07:12:19;;;;;;;13.53;5.75;;;;;;;35.64;26.58;100612.27;1693622;84;20946;-71
2021/05/28 07:14:46;;;;;;;11.83;4.40;;;;;;;35.76;24.47;100606.63;1693552;84;21091;-66
2021/05/28 07:17:13;;;;;;;13.83;4.15;;;;;;;35.95;24.49;100607.58;1693752;84;20938;-68
2021/05/28 07:19:39;;;;;;;7.25;2.55;;;;;;;36.03;24.13;100599.72;1712398;81;20925;-69
2021/05/28 07:22:07;;;;;;;34.05;8.03;;;;;;;36.18;23.53;100605.88;1757038;81;20987;-68
2021/05/28 07:24:34;;;;;;;28.02;7.72;;;;;;;36.34;22.32;100597.22;1757076;81;20894;-68
2021/05/28 07:27:01;;;;;;;11.75;4.05;;;;;;;36.40;22.42;100594.81;1757119;81;20902;-69
2021/05/28 07:29:27;;;;;;;14.65;2.98;;;;;;;36.42;22.68;100593.16;1757007;81;20993;-68
2021/05/28 07:31:56;;;;;;;9.13;2.22;;;;;;;36.56;22.78;100594.89;1757011;81;20898;-71
2021/05/28 07:34:23;;;;;;;8.18;3.15;;;;;;;36.73;21.98;100592.81;1757238;81;21602;-69
2021/05/28 07:36:49;;;;;;;6.28;2.08;;;;;;;36.95;21.83;100591.77;1757002;80;20926;-68
2021/05/28 07:39:19;;;;;;;8.70;2.47;;;;;;;37.13;21.34;100588.56;1757123;81;20902;-67
2021/05/28 07:41:45;;;;;;;8.85;2.80;;;;;;;37.26;21.53;100592.70;1757095;81;21017;-68
2021/05/28 07:44:12;;;;;;;6.53;2.42;;;;;;;37.30;21.47;100591.88;1756936;80;21394;-68
2021/05/28 07:46:45;;;;;;;5.12;2.17;;;;;;;37.35;21.35;100580.13;1757146;80;21006;-69
2021/05/28 07:49:12;;;;;;;7.08;2.52;;;;;;;37.40;21.60;100589.73;1757361;81;20886;-68
2021/05/28 07:51:41;;;;;;;6.58;2.20;;;;;;;37.35;20.63;100574.66;1756974;81;20858;-69
2021/05/28 07:54:09;;;;;;;8.33;2.30;;;;;;;37.37;21.91;100576.57;1757106;80;21431;-68
2021/05/28 07:56:37;;;;;;;11.95;3.90;;;;;;;37.48;21.33;100578.77;1751883;81;20946;-70
2021/05/28 07:59:06;;;;;;;2.90;1.77;;;;;;;37.54;20.31;100577.13;1749245;80;21534;-72
2021/05/28 08:01:32;;;;;;;4.33;2.40;;;;;;;37.47;19.95;100575.78;1749353;82;20915;-70
2021/05/28 08:03:59;;;;;;;9.65;2.37;;;;;;;37.29;20.49;100567.55;1749331;82;20902;-70
2021/05/28 08:06:27;;;;;;;4.65;1.20;;;;;;;37.32;20.18;100573.28;1749205;82;21009;-73
2021/05/28 08:08:54;;;;;;;4.87;1.80;;;;;;;37.41;19.74;100558.52;1749433;82;21003;-71
2021/05/28 08:11:21;;;;;;;8.53;2.33;;;;;;;37.54;20.14;100559.90;1749351;82;21056;-70
2021/05/28 08:13:49;;;;;;;5.15;1.55;;;;;;;37.64;21.12;100556.36;1748972;82;20950;-72
2021/05/28 08:16:18;;;;;;;9.10;1.80;;;;;;;37.77;19.60;100545.41;1749502;82;20986;-72
2021/05/28 08:18:45;;;;;;;4.10;1.32;;;;;;;37.89;19.00;100551.43;1749478;82;21033;-71
2021/05/28 08:21:12;;;;;;;7.15;2.02;;;;;;;37.87;19.19;100558.55;1749555;82;20981;-73
2021/05/28 08:23:39;;;;;;;8.08;2.00;;;;;;;37.89;19.16;100549.50;1749442;80;21092;-71
2021/05/28 08:26:07;;;;;;;5.30;2.10;;;;;;;37.98;20.27;100547.03;1749320;82;21458;-71
2021/05/28 08:28:35;;;;;;;5.90;2.30;;;;;;;38.16;20.08;100551.12;1749419;80;21079;-71
2021/05/28 08:31:06;;;;;;;3.25;1.95;;;;;;;38.23;18.86;100542.05;1749448;80;20905;-69
2021/05/28 08:33:33;;;;;;;11.53;3.75;;;;;;;38.29;19.96;100540.12;1749543;82;21352;-81
2021/05/28 08:36:01;;;;;;;6.60;3.08;;;;;;;38.38;18.62;100530.75;1749580;82;21584;-71
2021/05/28 08:38:28;;;;;;;23.35;10.05;;;;;;;38.49;19.13;100531.04;1749333;82;21481;-70
2021/05/28 08:40:55;;;;;;;8.95;3.62;;;;;;;38.59;18.88;100536.45;1749381;82;20997;-72
2021/05/28 08:43:22;;;;;;;7.95;3.50;;;;;;;38.66;18.88;100526.55;1749473;81;21483;-71
2021/05/28 08:45:49;;;;;;;9.05;3.37;;;;;;;38.70;19.77;100526.27;1749501;82;20898;-73
2021/05/28 08:48:18;;;;;;;9.30;3.10;;;;;;;38.82;19.54;100523.17;1749458;80;21777;-72
2021/05/28 08:50:48;;;;;;;3.67;1.37;;;;;;;38.89;18.97;100520.39;1749355;81;21372;-69
2021/05/28 08:53:16;;;;;;;4.67;1.98;;;;;;;38.90;19.17;100525.32;1749474;82;20954;-70
2021/05/28 08:55:43;;;;;;;5.50;1.98;;;;;;;38.66;19.18;100519.70;1749290;80;21031;-72
2021/05/28 08:58:14;;;;;;;3.45;1.20;;;;;;;38.49;19.31;100516.78;1749473;82;20875;-75
2021/05/28 09:00:44;;;;;;;4.53;1.60;;;;;;;38.06;18.41;100512.80;1749526;81;21180;-72
2021/05/28 09:03:23;;;;;;;4.47;1.77;;;;;;;37.53;19.59;100511.72;1749303;82;20854;-71
2021/05/28 09:05:51;;;;;;;4.53;1.55;;;;;;;37.23;19.52;100513.38;1749446;81;21438;-69
2021/05/28 09:08:30;;;;;;;6.08;1.57;;;;;;;37.10;20.82;100513.91;1749397;82;20954;-75
2021/05/28 09:11:07;;;;;;;7.67;1.57;;;;;;;37.18;21.00;100513.38;1749346;82;20977;-68
2021/05/28 09:13:46;;;;;;;9.08;2.25;;;;;;;37.24;21.02;100512.83;1749487;80;21054;-69
2021/05/28 09:16:17;;;;;;;2.70;1.20;;;;;;;37.37;20.96;100510.09;1749301;81;21004;-69
2021/05/28 09:18:52;;;;;;;6.85;2.02;;;;;;;37.56;19.38;100513.14;1749373;80;20981;-69
2021/05/28 09:21:31;;;;;;;11.65;1.80;;;;;;;37.70;19.82;100505.45;1749525;82;20918;-70
2021/05/28 09:24:03;;;;;;;3.72;1.00;;;;;;;37.87;19.31;100510.63;1749486;80;20953;-72
2021/05/28 09:26:31;;;;;;;10.68;1.57;;;;;;;38.03;18.80;100509.25;1749476;80;21078;-69
2021/05/28 09:28:58;;;;;;;6.22;2.10;;;;;;;38.01;18.88;100505.94;1749460;81;20950;-69
2021/05/28 09:31:32;;;;;;;4.42;1.37;;;;;;;38.07;19.25;100507.05;1749439;80;20961;-69
2021/05/28 09:33:58;;;;;;;2.52;1.20;;;;;;;38.11;18.15;100495.81;1749427;82;20925;-69
2021/05/28 09:36:35;;;;;;;6.35;1.77;;;;;;;38.17;18.26;100495.78;1749442;82;20922;-69
2021/05/28 09:39:11;;;;;;;6.75;2.00;;;;;;;38.08;18.61;100495.53;1749493;80;21925;-71
2021/05/28 09:41:51;;;;;;;4.87;2.20;;;;;;;38.06;18.91;100484.84;1748673;82;21471;-73
2021/05/28 09:44:32;;;;;;;5.12;1.60;;;;;;;38.24;19.12;100483.41;1749268;82;20999;-71
2021/05/28 09:47:13;;;;;;;16.60;2.87;;;;;;;38.45;19.02;100481.41;1749325;82;20997;-69
2021/05/28 09:49:50;;;;;;;6.00;1.52;;;;;;;38.60;18.51;100477.81;1749487;81;20878;-70
2021/05/28 09:52:27;;;;;;;4.08;2.02;;;;;;;38.80;18.79;100476.86;1749455;82;21090;-69
2021/05/28 09:55:10;;;;;;;4.00;1.37;;;;;;;38.88;18.93;100482.28;1749290;82;20850;-70
2021/05/28 09:57:52;;;;;;;4.45;1.70;;;;;;;38.79;17.80;100483.98;1728342;81;20905;-69
2021/05/28 10:00:32;;;;;;;3.87;1.35;;;;;;;38.52;18.91;100480.58;1757303;81;21044;-69
2021/05/28 10:03:23;;;;;;;6.40;2.15;;;;;;;38.19;19.41;100483.44;1757109;80;20906;-69
2021/05/28 10:05:58;;;;;;;6.60;2.75;;;;;;;37.91;18.90;100489.00;1757209;80;21434;-70
2021/05/28 10:08:27;;;;;;;10.13;2.50;;;;;;;37.56;19.33;100481.67;1756780;81;20997;-69
2021/05/28 10:10:59;;;;;;;4.37;1.67;;;;;;;37.28;19.01;100487.94;1757213;81;20906;-70
2021/05/28 10:13:26;;;;;;;6.78;1.87;;;;;;;36.97;19.24;100477.50;1757195;81;21005;-70
2021/05/28 10:15:55;;;;;;;9.65;1.50;;;;;;;36.70;20.27;100473.89;1757198;81;20977;-69
2021/05/28 10:18:23;;;;;;;8.88;1.47;;;;;;;36.55;19.91;100473.83;1757207;81;21379;-69
2021/05/28 10:20:54;;;;;;;6.15;1.62;;;;;;;36.58;20.74;100472.48;1757080;81;20893;-71
2021/05/28 10:23:22;;;;;;;3.75;1.12;;;;;;;36.66;21.06;100468.72;1757139;81;20925;-70
2021/05/28 10:25:56;;;;;;;5.17;1.12;;;;;;;36.77;20.13;100461.89;1756960;81;20882;-71
2021/05/28 10:28:30;;;;;;;6.03;1.27;;;;;;;36.68;19.82;100464.33;1757132;80;21442;-72
2021/05/28 10:30:57;;;;;;;6.15;1.17;;;;;;;36.48;20.26;100456.88;1756598;80;21150;-76
2021/05/28 10:33:34;;;;;;;5.92;1.52;;;;;;;36.22;21.31;100454.06;1756972;81;20870;-72
2021/05/28 10:36:03;;;;;;;5.80;1.30;;;;;;;35.99;20.52;100449.00;1756534;81;21374;-69
2021/05/28 10:38:37;;;;;;;2.72;1.47;;;;;;;35.68;21.18;100451.01;1756421;80;20919;-69
2021/05/28 10:41:17;;;;;;;3.52;1.10;;;;;;;35.38;21.31;100448.06;1757345;80;20977;-69
2021/05/28 10:43:58;;;;;;;3.02;1.50;;;;;;;35.08;21.01;100445.33;1758527;81;21491;-71
2021/05/28 10:46:25;;;;;;;6.97;1.75;;;;;;;34.85;21.90;100447.30;1757747;81;20910;-68
2021/05/28 10:49:10;;;;;;;4.75;1.25;;;;;;;34.66;22.96;100448.73;1757637;81;20914;-72
2021/05/28 10:51:44;;;;;;;2.77;0.95;;;;;;;34.64;21.76;100438.12;1757083;80;20946;-70
2021/05/28 10:54:22;;;;;;;4.92;1.12;;;;;;;34.60;22.22;100438.86;1757283;81;20946;-69
2021/05/28 10:56:49;;;;;;;3.87;1.10;;;;;;;34.47;22.62;100428.63;1754697;81;21471;-69
2021/05/28 10:59:21;;;;;;;4.47;1.47;;;;;;;34.42;22.47;100423.69;1749307;81;20965;-69
2021/05/28 11:01:58;;;;;;;6.95;2.10;;;;;;;34.41;22.42;100418.75;1749490;82;20942;-69
2021/05/28 11:04:31;;;;;;;6.00;2.20;;;;;;;34.35;23.28;100414.87;1749298;82;21045;-69
2021/05/28 11:07:09;;;;;;;5.28;2.17;;;;;;;34.26;23.34;100413.98;1742338;82;21530;-68
2021/05/28 11:09:42;;;;;;;12.95;3.05;;;;;;;34.11;24.43;100408.89;1749393;82;21183;-76
2021/05/28 11:12:17;;;;;;;6.42;1.20;;;;;;;33.90;23.09;100416.74;1722787;82;21016;-68
2021/05/28 11:15:13;;;;;;;13.38;5.55;;;;;;;33.49;23.23;100405.82;1749333;82;20974;-68
2021/05/28 11:18:03;;;;;;;21.27;5.17;;;;;;;33.04;23.87;100411.07;1749308;82;20902;-67
2021/05/28 11:20:36;;;;;;;10.72;2.02;;;;;;;32.77;24.38;100405.96;1749408;82;20870;-68
2021/05/28 11:23:14;;;;;;;13.08;8.20;;;;;;;32.56;24.49;100400.70;1749387;82;21043;-70
2021/05/28 11:25:47;;;;;;;9.98;2.45;;;;;;;32.39;24.82;100398.75;1749311;82;21356;-69
2021/05/28 11:28:14;;;;;;;3.62;1.90;;;;;;;32.35;25.16;100392.16;1749260;82;20863;-68
2021/05/28 11:30:51;;;;;;;5.60;1.22;;;;;;;32.38;25.29;100398.98;1749404;82;20914;-69